Time;durP1;ratioP1;P1;durP2;ratioP2;P2;SDS_P1;SDS_P2;PMS_P1;PMS_P2;Temp;Humidity;BMP_temperature;BMP_pressure;BME280_temperature;BME280_humidity;BME280_pressure;Samples;Min_cycle;Max_cycle;Signal;HPM_P1;HPM_P2
2024/02/03 00:00:00;;;;;;;6.33;5.73;;;10.00;99.90;;;;;;5048120;28;20224;-63
2024/02/03 00:02:28;;;;;;;7.87;5.60;;;10.00;99.90;;;;;;5047400;28;20201;-62
2024/02/03 00:04:56;;;;;;;6.27;5.70;;;10.00;99.90;;;;;;5047405;28;20713;-63
2024/02/03 00:07:25;;;;;;;7.37;5.53;;;10.00;99.90;;;;;;5049637;28;20240;-63
2024/02/03 00:09:53;;;;;;;7.33;5.57;;;10.00;99.90;;;;;;5044260;28;21202;-64
2024/02/03 00:12:25;;;;;;;7.47;5.37;;;10.10;99.90;;;;;;5045230;28;20213;-63
2024/02/03 00:14:54;;;;;;;7.30;5.60;;;10.20;99.90;;;;;;5048520;28;20536;-62
2024/02/03 00:17:24;;;;;;;6.63;4.97;;;10.20;99.90;;;;;;5048003;28;20213;-63
2024/02/03 00:19:53;;;;;;;6.50;5.23;;;10.20;99.90;;;;;;5047368;28;20287;-63
2024/02/03 00:22:22;;;;;;;8.00;5.47;;;10.20;99.90;;;;;;5044600;28;20212;-63
2024/02/03 00:24:50;;;;;;;8.67;5.27;;;10.20;99.90;;;;;;5046397;28;20231;-63
2024/02/03 00:27:19;;;;;;;8.13;5.30;;;10.10;99.90;;;;;;5050227;28;20555;-62
2024/02/03 00:29:47;;;;;;;7.93;5.53;;;10.20;99.90;;;;;;5044817;28;20290;-63
2024/02/03 00:32:17;;;;;;;8.90;5.60;;;10.20;99.90;;;;;;5047394;28;20260;-62
2024/02/03 00:34:47;;;;;;;5.93;5.43;;;10.20;99.90;;;;;;5048398;28;20197;-62
2024/02/03 00:37:15;;;;;;;6.27;5.40;;;10.20;99.90;;;;;;5050063;28;20262;-62
2024/02/03 00:39:44;;;;;;;5.97;5.37;;;10.20;99.90;;;;;;5048630;28;20231;-62
2024/02/03 00:42:12;;;;;;;6.97;5.53;;;10.20;99.90;;;;;;5042026;28;20216;-63
2024/02/03 00:44:41;;;;;;;5.67;5.10;;;10.20;99.90;;;;;;5041444;28;20224;-62
2024/02/03 00:47:09;;;;;;;6.73;5.20;;;10.20;99.90;;;;;;5046801;28;20196;-61
2024/02/03 00:49:37;;;;;;;6.67;5.60;;;10.20;99.90;;;;;;5047696;28;20659;-62
2024/02/03 00:52:07;;;;;;;5.50;5.07;;;10.20;99.90;;;;;;5049249;28;20212;-63
2024/02/03 00:54:35;;;;;;;6.87;5.13;;;10.20;99.90;;;;;;5045038;28;20240;-62
2024/02/03 00:57:04;;;;;;;7.77;5.50;;;10.20;99.90;;;;;;5041282;28;20266;-62
2024/02/03 00:59:33;;;;;;;6.03;5.20;;;10.20;99.90;;;;;;5047119;28;20248;-62
2024/02/03 01:02:01;;;;;;;7.83;5.40;;;10.20;99.90;;;;;;5041586;28;20202;-62
2024/02/03 01:04:29;;;;;;;6.63;5.23;;;10.20;99.90;;;;;;5046122;28;20631;-62
2024/02/03 01:06:59;;;;;;;6.80;5.30;;;10.20;99.90;;;;;;5045377;28;20300;-62
2024/02/03 01:09:28;;;;;;;5.70;5.20;;;10.20;99.90;;;;;;5047009;28;20721;-62
2024/02/03 01:11:56;;;;;;;7.00;5.63;;;10.20;99.90;;;;;;5045050;28;20274;-62
2024/02/03 01:14:24;;;;;;;5.80;5.30;;;10.30;99.90;;;;;;5045461;28;20185;-62
2024/02/03 01:16:52;;;;;;;5.27;4.90;;;10.20;99.90;;;;;;5047367;28;20188;-62
2024/02/03 01:19:21;;;;;;;8.07;5.60;;;10.20;99.90;;;;;;5040343;28;20247;-62
2024/02/03 01:21:49;;;;;;;9.03;5.27;;;10.30;99.90;;;;;;5046166;28;20213;-62
2024/02/03 01:24:18;;;;;;;9.93;5.40;;;10.30;99.90;;;;;;5040172;28;20267;-62
2024/02/03 01:26:47;;;;;;;8.53;5.80;;;10.30;99.90;;;;;;5047149;28;20756;-61
2024/02/03 01:29:17;;;;;;;8.30;5.90;;;10.30;99.90;;;;;;5043456;28;20189;-62
2024/02/03 01:31:45;;;;;;;11.23;5.63;;;10.30;99.90;;;;;;5047940;28;20193;-62
2024/02/03 01:34:14;;;;;;;10.57;6.20;;;10.30;99.90;;;;;;5047345;28;20220;-62
2024/02/03 01:36:42;;;;;;;11.17;5.67;;;10.30;99.90;;;;;;5042982;28;20224;-62
2024/02/03 01:39:11;;;;;;;7.20;5.90;;;10.30;99.90;;;;;;5047145;28;20240;-63
2024/02/03 01:41:41;;;;;;;7.83;5.23;;;10.30;99.90;;;;;;5043201;28;20303;-62
2024/02/03 01:44:11;;;;;;;10.23;5.20;;;10.30;99.90;;;;;;5042781;28;20201;-62
2024/02/03 01:46:40;;;;;;;7.60;5.47;;;10.30;99.90;;;;;;5045392;28;20196;-63
2024/02/03 01:49:08;;;;;;;6.50;5.60;;;10.30;99.90;;;;;;5048928;28;20213;-62
2024/02/03 01:51:37;;;;;;;6.80;5.60;;;10.30;99.90;;;;;;5044479;28;20324;-63
2024/02/03 01:54:06;;;;;;;7.53;5.63;;;10.30;99.90;;;;;;5047268;28;20305;-62
2024/02/03 01:56:37;;;;;;;11.73;5.70;;;10.30;99.90;;;;;;5041443;28;20223;-62
2024/02/03 01:59:06;;;;;;;5.93;5.07;;;10.30;99.90;;;;;;5045890;28;20237;-62
2024/02/03 02:01:36;;;;;;;7.50;5.77;;;10.30;99.90;;;;;;5042386;28;20219;-62
2024/02/03 02:04:04;;;;;;;9.43;5.77;;;10.30;99.90;;;;;;5041372;28;20232;-62
2024/02/03 02:06:33;;;;;;;8.33;5.80;;;10.30;99.90;;;;;;5042773;28;20217;-62
2024/02/03 02:09:01;;;;;;;9.03;6.13;;;10.30;99.90;;;;;;5043011;28;20905;-62
2024/02/03 02:11:30;;;;;;;8.93;5.77;;;10.30;99.90;;;;;;5044540;28;20244;-63
2024/02/03 02:13:57;;;;;;;7.67;5.27;;;10.30;99.90;;;;;;5042894;28;20197;-62
2024/02/03 02:16:29;;;;;;;7.10;5.67;;;10.40;99.90;;;;;;5039697;28;20221;-63
2024/02/03 02:18:58;;;;;;;8.00;5.40;;;10.40;99.90;;;;;;5042906;28;20217;-62
2024/02/03 02:21:28;;;;;;;14.87;5.63;;;10.40;99.90;;;;;;5042307;28;20223;-62
2024/02/03 02:23:57;;;;;;;8.17;5.50;;;10.30;99.90;;;;;;5043004;28;22254;-63
2024/02/03 02:26:25;;;;;;;9.90;5.80;;;10.30;99.90;;;;;;5046025;28;20203;-62
2024/02/03 02:28:54;;;;;;;9.53;6.00;;;10.30;99.90;;;;;;5043253;28;20608;-63
2024/02/03 02:31:24;;;;;;;8.00;5.57;;;10.30;99.90;;;;;;5041453;28;20270;-62
2024/02/03 02:33:52;;;;;;;12.83;6.50;;;10.30;99.90;;;;;;5043369;28;20231;-63
2024/02/03 02:36:21;;;;;;;8.50;5.90;;;10.30;99.90;;;;;;5040302;28;21051;-62
2024/02/03 02:38:50;;;;;;;10.03;5.63;;;10.30;99.90;;;;;;5041825;28;20216;-63
2024/02/03 02:41:18;;;;;;;6.07;5.27;;;10.20;99.90;;;;;;5041747;28;20201;-62
2024/02/03 02:43:47;;;;;;;9.03;5.43;;;10.30;99.90;;;;;;5046454;28;20216;-63
2024/02/03 02:46:15;;;;;;;13.90;6.20;;;10.30;99.90;;;;;;5042538;28;20764;-62
2024/02/03 02:48:44;;;;;;;7.80;5.73;;;10.30;99.90;;;;;;5046061;28;20214;-62
2024/02/03 02:51:13;;;;;;;8.77;5.57;;;10.20;99.90;;;;;;5043939;28;20715;-62
2024/02/03 02:53:41;;;;;;;12.37;5.33;;;10.30;99.90;;;;;;5043524;28;20759;-63
2024/02/03 02:56:13;;;;;;;11.70;5.40;;;10.30;99.90;;;;;;5044826;28;20622;-62
2024/02/03 02:58:41;;;;;;;6.10;5.13;;;10.30;99.90;;;;;;5060429;28;20223;-63
2024/02/03 03:01:09;;;;;;;8.90;4.87;;;10.30;99.90;;;;;;5042322;28;20231;-62
2024/02/03 03:03:38;;;;;;;6.30;4.80;;;10.20;99.90;;;;;;5040826;28;20225;-63
2024/02/03 03:06:06;;;;;;;13.37;5.63;;;10.30;99.90;;;;;;5058660;28;20315;-63
2024/02/03 03:08:35;;;;;;;6.20;5.20;;;10.30;99.90;;;;;;5039286;28;20220;-62
2024/02/03 03:11:04;;;;;;;10.07;5.37;;;10.30;99.90;;;;;;5042354;28;20719;-62
2024/02/03 03:13:33;;;;;;;9.73;5.80;;;10.30;99.90;;;;;;5043249;28;20224;-62
2024/02/03 03:16:01;;;;;;;10.13;5.93;;;10.20;99.90;;;;;;5042660;28;20217;-62
2024/02/03 03:18:30;;;;;;;12.33;6.33;;;10.20;99.90;;;;;;5044171;28;20217;-63
2024/02/03 03:20:59;;;;;;;7.97;5.60;;;10.40;99.90;;;;;;5044221;28;20224;-62
2024/02/03 03:23:27;;;;;;;10.03;5.83;;;10.30;99.90;;;;;;5042589;28;20192;-63
2024/02/03 03:25:56;;;;;;;10.87;6.00;;;10.30;99.90;;;;;;5044126;28;20197;-63
2024/02/03 03:28:24;;;;;;;10.93;6.47;;;10.30;99.90;;;;;;5044204;28;20220;-63
2024/02/03 03:30:54;;;;;;;14.97;6.73;;;10.30;99.90;;;;;;5043675;28;20216;-62
2024/02/03 03:33:22;;;;;;;15.07;6.63;;;10.30;99.90;;;;;;5046012;28;20278;-63
2024/02/03 03:35:50;;;;;;;13.53;6.90;;;10.30;99.90;;;;;;5041902;28;20337;-62
2024/02/03 03:38:18;;;;;;;15.57;6.77;;;10.30;99.90;;;;;;5041427;28;20201;-63
2024/02/03 03:40:47;;;;;;;12.60;7.07;;;10.30;99.90;;;;;;5043851;28;20219;-63
2024/02/03 03:43:15;;;;;;;20.40;7.80;;;10.30;99.90;;;;;;5043586;28;20233;-63
2024/02/03 03:45:43;;;;;;;13.87;7.83;;;10.20;99.90;;;;;;5044715;28;20220;-62
2024/02/03 03:48:13;;;;;;;17.63;7.23;;;10.20;99.90;;;;;;5043953;28;20233;-62
2024/02/03 03:50:41;;;;;;;13.47;6.80;;;10.20;99.90;;;;;;5038831;28;20613;-62
2024/02/03 03:53:09;;;;;;;18.00;7.00;;;10.20;99.90;;;;;;5041999;28;20245;-62
2024/02/03 03:55:38;;;;;;;22.17;6.50;;;10.20;99.90;;;;;;5048966;28;20186;-62
2024/02/03 03:58:06;;;;;;;10.97;6.73;;;10.20;99.90;;;;;;5044839;28;20220;-62
2024/02/03 04:00:34;;;;;;;10.83;6.23;;;10.30;99.90;;;;;;5038886;28;20951;-63
2024/02/03 04:03:03;;;;;;;15.13;6.07;;;10.30;99.90;;;;;;5045545;28;20713;-63
2024/02/03 04:05:32;;;;;;;12.80;6.30;;;10.30;99.90;;;;;;5040920;28;20270;-62
2024/02/03 04:08:00;;;;;;;10.07;5.77;;;10.30;99.90;;;;;;5041807;28;20280;-62
2024/02/03 04:10:28;;;;;;;13.10;6.03;;;10.30;99.90;;;;;;5040068;28;20213;-62
2024/02/03 04:12:57;;;;;;;13.87;5.40;;;10.30;99.90;;;;;;5037914;28;20216;-62
2024/02/03 04:15:25;;;;;;;11.33;5.40;;;10.30;99.90;;;;;;5042840;28;20220;-63
2024/02/03 04:17:54;;;;;;;11.60;5.53;;;10.30;99.90;;;;;;5041361;28;20222;-62
2024/02/03 04:20:22;;;;;;;13.43;5.27;;;10.30;99.90;;;;;;5043838;28;20201;-62
2024/02/03 04:22:52;;;;;;;14.07;5.43;;;10.30;99.90;;;;;;5043834;28;20203;-63
2024/02/03 04:25:21;;;;;;;12.33;5.20;;;10.30;99.90;;;;;;5042119;28;20256;-62
2024/02/03 04:27:49;;;;;;;13.07;5.30;;;10.30;99.90;;;;;;5043626;28;20279;-62
2024/02/03 04:30:19;;;;;;;12.40;4.97;;;10.30;99.90;;;;;;5045553;28;20236;-62
2024/02/03 04:32:52;;;;;;;12.23;4.77;;;10.30;99.90;;;;;;5046183;28;20225;-63
2024/02/03 04:35:20;;;;;;;14.07;5.40;;;10.20;99.90;;;;;;5049223;28;20204;-63
2024/02/03 04:37:49;;;;;;;12.80;4.40;;;10.30;99.90;;;;;;5051350;28;20209;-63
2024/02/03 04:40:18;;;;;;;12.30;5.37;;;10.30;99.90;;;;;;5046772;28;20225;-63
2024/02/03 04:42:48;;;;;;;13.93;5.20;;;10.30;99.90;;;;;;5047686;28;20228;-62
2024/02/03 04:45:17;;;;;;;10.53;5.50;;;10.30;99.90;;;;;;5043536;28;20247;-62
2024/02/03 04:47:45;;;;;;;12.00;4.90;;;10.40;99.90;;;;;;5041445;28;20235;-62
2024/02/03 04:50:13;;;;;;;14.13;5.37;;;10.40;99.90;;;;;;5026123;28;20201;-62
2024/02/03 04:52:42;;;;;;;12.63;5.50;;;10.40;99.90;;;;;;5046703;28;20299;-62
2024/02/03 04:55:10;;;;;;;16.37;5.30;;;10.40;99.90;;;;;;5044995;28;20239;-61
2024/02/03 04:57:39;;;;;;;16.50;5.63;;;10.30;99.90;;;;;;5042903;28;20225;-61
2024/02/03 05:00:09;;;;;;;18.20;6.10;;;10.40;99.90;;;;;;5044350;28;20220;-61
2024/02/03 05:02:38;;;;;;;10.43;5.13;;;10.40;99.90;;;;;;5040963;28;20287;-64
2024/02/03 05:05:06;;;;;;;14.60;5.23;;;10.30;99.90;;;;;;5042631;28;20193;-64
2024/02/03 05:07:35;;;;;;;18.80;5.50;;;10.30;99.90;;;;;;5041549;28;20657;-63
2024/02/03 05:10:05;;;;;;;13.10;5.13;;;10.30;99.90;;;;;;5044456;28;20211;-64
2024/02/03 05:12:33;;;;;;;14.67;6.20;;;10.30;99.90;;;;;;5045978;28;20236;-64
2024/02/03 05:15:03;;;;;;;18.23;5.23;;;10.30;99.90;;;;;;5046597;28;20325;-63
2024/02/03 05:17:33;;;;;;;13.57;4.87;;;10.20;99.90;;;;;;5044925;28;20212;-63
2024/02/03 05:20:02;;;;;;;13.37;5.13;;;10.20;99.90;;;;;;5043033;28;20287;-64
2024/02/03 05:22:30;;;;;;;11.87;5.17;;;10.20;99.90;;;;;;5044072;28;20216;-64
2024/02/03 05:24:58;;;;;;;15.43;6.17;;;10.20;99.90;;;;;;5041793;28;20223;-61
2024/02/03 05:27:26;;;;;;;14.47;4.90;;;10.20;99.90;;;;;;5044152;28;20304;-63
2024/02/03 05:29:55;;;;;;;15.00;5.07;;;10.20;99.90;;;;;;5044253;28;20228;-63
2024/02/03 05:32:24;;;;;;;15.00;5.00;;;10.20;99.90;;;;;;5047160;28;20231;-63
2024/02/03 05:34:52;;;;;;;16.60;4.60;;;10.20;99.90;;;;;;5040621;28;20194;-64
2024/02/03 05:37:21;;;;;;;9.90;4.13;;;10.20;99.90;;;;;;5046548;28;20335;-64
2024/02/03 05:39:49;;;;;;;16.97;4.53;;;10.30;99.90;;;;;;5047375;28;20219;-64
2024/02/03 05:42:17;;;;;;;9.40;4.10;;;10.20;99.90;;;;;;5043954;28;20845;-64
2024/02/03 05:44:50;;;;;;;8.97;4.00;;;10.30;99.90;;;;;;5040785;28;20313;-61
2024/02/03 05:47:18;;;;;;;8.67;3.60;;;10.30;99.90;;;;;;5046064;28;20226;-62
2024/02/03 05:49:48;;;;;;;12.40;3.70;;;10.30;99.90;;;;;;5042718;28;20204;-62
2024/02/03 05:52:16;;;;;;;13.20;4.03;;;10.30;99.90;;;;;;5046264;28;20216;-61
2024/02/03 05:54:45;;;;;;;5.57;3.07;;;10.30;99.90;;;;;;5044071;28;20213;-62
2024/02/03 05:57:13;;;;;;;9.80;3.53;;;10.30;99.90;;;;;;5047264;28;20220;-62
2024/02/03 05:59:44;;;;;;;9.87;3.20;;;10.30;99.90;;;;;;5039956;28;20239;-62
2024/02/03 06:02:19;;;;;;;12.47;2.90;;;10.40;99.90;;;;;;5045771;28;20196;-61
2024/02/03 06:04:48;;;;;;;9.87;2.90;;;10.30;99.90;;;;;;5059276;28;20204;-62
2024/02/03 06:07:17;;;;;;;9.67;3.07;;;10.40;99.90;;;;;;5041197;28;20265;-61
2024/02/03 06:09:46;;;;;;;10.80;3.13;;;10.50;99.90;;;;;;5042868;28;20464;-62
2024/02/03 06:12:14;;;;;;;8.90;3.10;;;10.50;99.90;;;;;;5045079;28;20224;-62
2024/02/03 06:14:43;;;;;;;13.63;3.10;;;10.50;99.90;;;;;;5040893;28;20278;-62
2024/02/03 06:17:13;;;;;;;8.70;2.90;;;10.40;99.90;;;;;;5042211;28;20215;-62
2024/02/03 06:19:41;;;;;;;12.40;2.83;;;10.40;99.90;;;;;;5048546;28;20189;-62
2024/02/03 06:22:13;;;;;;;8.97;2.90;;;10.40;99.90;;;;;;5045489;28;20568;-61
2024/02/03 06:24:41;;;;;;;11.33;2.90;;;10.50;99.90;;;;;;5046273;28;20225;-62
2024/02/03 06:27:09;;;;;;;8.60;3.13;;;10.50;99.90;;;;;;5043039;28;20233;-62
2024/02/03 06:29:38;;;;;;;8.23;2.80;;;10.50;99.90;;;;;;5040299;28;20303;-62
2024/02/03 06:32:06;;;;;;;11.83;3.40;;;10.50;99.90;;;;;;5039630;28;20208;-62
2024/02/03 06:34:35;;;;;;;7.80;3.47;;;10.50;99.90;;;;;;5047935;28;20255;-62
2024/02/03 06:37:04;;;;;;;10.67;3.27;;;10.50;99.90;;;;;;5040629;28;20212;-62
2024/02/03 06:39:34;;;;;;;6.83;2.53;;;10.50;99.90;;;;;;5033645;28;20217;-62
2024/02/03 06:42:02;;;;;;;8.67;3.27;;;10.50;99.90;;;;;;5033040;28;20245;-61
2024/02/03 06:44:30;;;;;;;9.87;3.70;;;10.50;99.90;;;;;;5044489;28;20225;-61
2024/02/03 06:46:58;;;;;;;11.97;3.97;;;10.50;99.90;;;;;;5047255;28;20185;-62
2024/02/03 06:49:26;;;;;;;6.23;3.20;;;10.50;99.90;;;;;;5041785;28;20229;-61
2024/02/03 06:51:55;;;;;;;14.50;4.43;;;10.50;99.90;;;;;;5042745;28;20204;-62
2024/02/03 06:54:23;;;;;;;8.17;3.70;;;10.40;99.90;;;;;;5043767;28;20228;-62
2024/02/03 06:56:53;;;;;;;12.10;3.97;;;10.50;99.90;;;;;;5044806;28;20214;-62
2024/02/03 06:59:21;;;;;;;10.03;3.93;;;10.50;99.90;;;;;;5046064;28;20773;-61
2024/02/03 07:01:50;;;;;;;11.83;4.27;;;10.50;99.90;;;;;;5045164;28;20230;-62
2024/02/03 07:04:18;;;;;;;13.67;3.87;;;10.50;99.90;;;;;;5040689;28;20618;-62
2024/02/03 07:06:47;;;;;;;12.00;4.20;;;10.50;99.90;;;;;;5042097;28;20263;-62
2024/02/03 07:09:15;;;;;;;10.67;4.50;;;10.50;99.90;;;;;;5047077;28;20683;-62
2024/02/03 07:11:47;;;;;;;15.73;5.00;;;10.50;99.90;;;;;;5043320;28;20224;-61
2024/02/03 07:14:33;;;;;;;11.87;4.93;;;10.50;99.90;;;;;;5043240;28;20228;-62
2024/02/03 07:17:01;;;;;;;17.20;4.87;;;10.50;99.90;;;;;;5043424;28;20509;-62
2024/02/03 07:19:30;;;;;;;13.10;4.63;;;10.50;99.90;;;;;;5044318;28;20266;-62
2024/02/03 07:22:00;;;;;;;14.20;5.30;;;10.50;99.90;;;;;;5060874;28;20636;-62
2024/02/03 07:24:35;;;;;;;14.10;5.70;;;10.50;99.90;;;;;;5056657;28;20221;-62
2024/02/03 07:27:04;;;;;;;16.13;5.60;;;10.50;99.90;;;;;;5042007;28;20757;-62
2024/02/03 07:29:34;;;;;;;12.33;5.57;;;10.50;99.90;;;;;;5042789;28;20227;-62
2024/02/03 07:32:03;;;;;;;12.27;5.23;;;10.50;99.90;;;;;;5046641;28;20189;-62
2024/02/03 07:34:32;;;;;;;13.87;6.13;;;10.50;99.90;;;;;;5040404;28;20686;-62
2024/02/03 07:37:00;;;;;;;14.73;6.33;;;10.50;99.90;;;;;;5048073;28;20220;-62
2024/02/03 07:39:28;;;;;;;15.10;6.47;;;10.50;99.90;;;;;;5042000;28;20853;-62
2024/02/03 07:41:57;;;;;;;17.80;7.00;;;10.50;99.90;;;;;;5045239;28;20617;-62
2024/02/03 07:44:25;;;;;;;20.00;7.50;;;10.60;99.90;;;;;;5042984;28;20200;-62
2024/02/03 07:46:54;;;;;;;24.10;7.70;;;10.60;99.90;;;;;;5044559;28;20200;-62
2024/02/03 07:49:23;;;;;;;18.47;7.47;;;10.50;99.90;;;;;;5045552;28;20299;-62
2024/02/03 07:51:51;;;;;;;18.50;6.83;;;10.50;99.90;;;;;;5044216;28;20224;-62
2024/02/03 07:54:19;;;;;;;16.77;7.27;;;10.60;99.90;;;;;;5046892;28;20278;-63
2024/02/03 07:56:48;;;;;;;24.93;8.00;;;10.60;99.90;;;;;;5044511;28;20229;-62
2024/02/03 07:59:16;;;;;;;23.13;8.27;;;10.60;99.90;;;;;;5045203;28;20189;-63
2024/02/03 08:01:44;;;;;;;21.90;7.40;;;10.60;99.90;;;;;;5044127;28;20677;-62
2024/02/03 08:04:16;;;;;;;15.97;7.30;;;10.60;99.90;;;;;;5039934;28;20303;-62
2024/02/03 08:06:44;;;;;;;26.70;7.67;;;10.60;99.90;;;;;;5047360;28;20801;-62
2024/02/03 08:09:12;;;;;;;14.67;7.83;;;10.70;99.90;;;;;;5047489;28;20607;-63
2024/02/03 08:11:41;;;;;;;18.07;7.27;;;10.70;99.90;;;;;;5041659;28;20241;-63
2024/02/03 08:14:09;;;;;;;20.00;7.90;;;10.70;99.90;;;;;;5048088;28;20239;-63
2024/02/03 08:16:37;;;;;;;21.93;7.60;;;10.70;99.90;;;;;;5049586;28;20192;-62
2024/02/03 08:19:05;;;;;;;14.70;6.90;;;10.70;99.90;;;;;;5048175;28;20231;-62
2024/02/03 08:21:36;;;;;;;19.70;7.33;;;10.80;99.90;;;;;;5045876;28;20236;-63
2024/02/03 08:24:05;;;;;;;20.00;6.43;;;10.80;99.90;;;;;;5047574;28;20218;-63
2024/02/03 08:26:33;;;;;;;9.77;6.07;;;10.80;99.90;;;;;;5049848;28;20220;-63
2024/02/03 08:29:02;;;;;;;15.23;6.00;;;10.80;99.90;;;;;;5049085;28;20193;-62
2024/02/03 08:31:30;;;;;;;18.87;6.40;;;10.80;99.90;;;;;;5046731;28;20205;-62
2024/02/03 08:33:58;;;;;;;15.53;6.40;;;10.80;99.90;;;;;;5044738;28;20225;-63
2024/02/03 08:36:26;;;;;;;12.63;5.73;;;10.90;99.90;;;;;;5044393;28;20231;-63
2024/02/03 08:38:56;;;;;;;14.53;5.60;;;10.90;99.90;;;;;;5044051;28;20648;-63
2024/02/03 08:41:25;;;;;;;14.77;5.70;;;10.90;99.90;;;;;;5043942;28;21314;-63
2024/02/03 08:43:53;;;;;;;13.90;5.97;;;10.90;99.90;;;;;;5047859;28;20532;-63
2024/02/03 08:46:22;;;;;;;17.13;6.50;;;10.90;99.90;;;;;;5043723;28;20785;-63
2024/02/03 08:48:50;;;;;;;20.07;5.83;;;11.00;99.90;;;;;;5044632;28;20224;-62
2024/02/03 08:51:18;;;;;;;17.10;6.03;;;10.90;99.90;;;;;;5046890;28;20225;-63
2024/02/03 08:53:46;;;;;;;14.63;5.23;;;10.90;99.90;;;;;;5042782;28;20223;-62
2024/02/03 08:56:16;;;;;;;14.80;5.47;;;10.90;99.90;;;;;;5042907;28;20189;-63
2024/02/03 08:58:44;;;;;;;13.97;5.07;;;11.00;99.90;;;;;;5046101;28;20193;-62
2024/02/03 09:01:12;;;;;;;11.80;4.97;;;11.00;99.90;;;;;;5047174;28;20224;-62
2024/02/03 09:03:41;;;;;;;13.47;5.67;;;11.00;99.90;;;;;;5051180;28;20232;-63
2024/02/03 09:06:11;;;;;;;18.40;5.70;;;11.10;99.90;;;;;;5047722;28;20213;-63
2024/02/03 09:08:40;;;;;;;17.50;5.37;;;11.10;99.90;;;;;;5048417;28;20229;-63
2024/02/03 09:11:08;;;;;;;20.57;5.80;;;11.20;99.90;;;;;;5049602;28;20194;-63
2024/02/03 09:13:37;;;;;;;14.07;5.27;;;11.20;99.90;;;;;;5041524;28;20220;-63
2024/02/03 09:16:06;;;;;;;16.57;5.13;;;11.20;99.90;;;;;;5046324;28;20216;-62
2024/02/03 09:18:34;;;;;;;15.07;5.23;;;11.30;99.90;;;;;;5045096;28;20605;-63
2024/02/03 09:21:11;;;;;;;16.37;5.20;;;11.30;99.90;;;;;;5046287;28;20220;-62
2024/02/03 09:23:39;;;;;;;12.87;5.27;;;11.20;99.90;;;;;;5045831;28;20262;-63
2024/02/03 09:26:08;;;;;;;18.03;4.70;;;11.20;99.90;;;;;;5043498;28;20185;-62
2024/02/03 09:28:38;;;;;;;19.73;5.77;;;11.20;99.90;;;;;;5041882;28;20573;-63
2024/02/03 09:31:06;;;;;;;14.00;5.10;;;11.20;99.90;;;;;;5044454;28;20213;-62
2024/02/03 09:33:36;;;;;;;13.90;4.70;;;11.20;99.90;;;;;;5048975;28;20607;-63
2024/02/03 09:36:05;;;;;;;12.87;4.73;;;11.20;99.90;;;;;;5046101;28;20738;-63
2024/02/03 09:38:34;;;;;;;14.77;5.23;;;11.20;99.90;;;;;;5046211;28;20224;-63
2024/02/03 09:41:02;;;;;;;17.10;4.53;;;11.20;99.90;;;;;;5043860;28;20216;-62
2024/02/03 09:43:31;;;;;;;16.97;4.83;;;11.20;99.90;;;;;;5043491;28;20225;-62
2024/02/03 09:46:01;;;;;;;18.50;5.70;;;11.20;99.90;;;;;;5042492;28;20228;-62
2024/02/03 09:48:29;;;;;;;15.63;4.97;;;11.20;99.90;;;;;;5045416;28;20236;-63
2024/02/03 09:50:58;;;;;;;17.37;5.20;;;11.10;99.90;;;;;;5042072;28;20232;-63
2024/02/03 09:53:27;;;;;;;11.83;5.40;;;11.10;99.90;;;;;;5043711;28;20189;-63
2024/02/03 09:55:58;;;;;;;12.97;5.27;;;11.10;99.90;;;;;;5047275;28;20648;-63
2024/02/03 09:58:27;;;;;;;10.63;4.80;;;11.10;99.90;;;;;;5044369;28;20220;-63
2024/02/03 10:00:55;;;;;;;11.13;5.03;;;11.00;99.90;;;;;;5040802;28;20274;-63
2024/02/03 10:03:25;;;;;;;13.43;5.47;;;11.00;99.90;;;;;;5043930;28;20641;-63
2024/02/03 10:06:00;;;;;;;13.13;5.33;;;11.00;99.90;;;;;;5042491;28;20626;-62
2024/02/03 10:08:29;;;;;;;11.83;6.10;;;11.00;99.90;;;;;;5044990;28;20227;-63
2024/02/03 10:10:57;;;;;;;15.73;6.40;;;10.90;99.90;;;;;;5046616;28;20212;-63
2024/02/03 10:13:26;;;;;;;15.83;5.77;;;10.90;99.90;;;;;;5042797;28;20240;-62
2024/02/03 10:16:00;;;;;;;15.00;5.83;;;10.90;99.90;;;;;;5042085;28;20227;-63
2024/02/03 10:18:33;;;;;;;13.43;5.50;;;10.90;99.90;;;;;;5042005;28;20224;-63
2024/02/03 10:21:02;;;;;;;12.10;5.60;;;10.90;99.90;;;;;;5042042;28;20302;-63
2024/02/03 10:23:30;;;;;;;15.83;6.07;;;10.90;99.90;;;;;;5042453;28;20244;-63
2024/02/03 10:26:00;;;;;;;13.47;6.00;;;10.90;99.90;;;;;;5040523;28;20193;-63
2024/02/03 10:28:28;;;;;;;8.87;5.77;;;11.00;99.90;;;;;;5038346;28;20228;-63
2024/02/03 10:31:02;;;;;;;10.90;5.30;;;11.00;99.90;;;;;;5043335;28;20220;-62
2024/02/03 10:33:33;;;;;;;11.60;5.43;;;11.10;99.90;;;;;;5042503;28;20220;-63
2024/02/03 10:36:03;;;;;;;12.40;5.60;;;11.10;99.90;;;;;;5043947;28;20216;-62
2024/02/03 10:38:31;;;;;;;7.90;5.07;;;11.10;99.90;;;;;;5039916;28;20228;-63
2024/02/03 10:41:02;;;;;;;13.50;5.70;;;11.10;99.90;;;;;;5035749;28;20216;-62
2024/02/03 10:43:35;;;;;;;11.03;5.40;;;11.10;99.90;;;;;;5040078;28;20560;-63
2024/02/03 10:46:06;;;;;;;11.70;5.20;;;11.10;99.90;;;;;;5038997;28;20225;-63
2024/02/03 10:48:41;;;;;;;5.50;4.93;;;11.10;99.90;;;;;;5042035;28;20622;-62
2024/02/03 10:51:15;;;;;;;12.37;5.07;;;11.20;99.90;;;;;;5039521;28;20266;-63
2024/02/03 10:53:49;;;;;;;7.87;4.30;;;11.40;99.90;;;;;;5042579;28;20328;-63
2024/02/03 10:56:23;;;;;;;12.63;5.03;;;11.50;99.90;;;;;;5040336;28;20188;-62
2024/02/03 10:58:52;;;;;;;8.50;4.70;;;11.40;99.90;;;;;;5041777;28;20190;-63
2024/02/03 11:01:21;;;;;;;5.43;4.50;;;11.50;99.90;;;;;;5040452;28;20220;-64
2024/02/03 11:03:52;;;;;;;8.47;4.33;;;11.60;99.90;;;;;;5041551;28;20217;-63
2024/02/03 11:06:25;;;;;;;6.87;4.83;;;11.60;99.90;;;;;;5043108;28;20221;-63
2024/02/03 11:08:53;;;;;;;8.53;5.30;;;11.60;99.90;;;;;;5042547;28;20245;-63
2024/02/03 11:11:27;;;;;;;10.67;5.40;;;11.70;99.90;;;;;;5043678;28;20192;-63
2024/02/03 11:13:55;;;;;;;14.03;5.90;;;11.70;99.90;;;;;;5044543;28;20203;-63
2024/02/03 11:16:23;;;;;;;9.40;5.87;;;11.80;99.90;;;;;;5043650;28;20225;-63
2024/02/03 11:18:53;;;;;;;14.17;5.70;;;11.80;99.90;;;;;;5044879;28;20217;-63
2024/02/03 11:21:27;;;;;;;13.07;5.43;;;11.80;99.90;;;;;;5044715;28;20224;-63
2024/02/03 11:23:56;;;;;;;13.27;5.77;;;11.70;99.90;;;;;;5042282;28;20224;-63
2024/02/03 11:26:24;;;;;;;8.27;4.80;;;11.70;99.90;;;;;;5045480;28;20193;-62
2024/02/03 11:28:52;;;;;;;13.10;4.90;;;11.80;99.90;;;;;;5045505;28;20197;-63
2024/02/03 11:31:23;;;;;;;10.73;4.77;;;11.70;99.90;;;;;;5045410;28;20228;-63
2024/02/03 11:33:54;;;;;;;13.83;4.77;;;11.80;99.90;;;;;;5044996;28;20216;-62
2024/02/03 11:36:23;;;;;;;10.80;4.57;;;11.80;99.90;;;;;;5040771;28;20253;-62
2024/02/03 11:38:52;;;;;;;13.67;4.63;;;11.70;99.90;;;;;;5042213;28;20212;-63
2024/02/03 11:41:21;;;;;;;15.10;5.03;;;11.70;99.90;;;;;;5041498;28;20213;-63
2024/02/03 11:43:50;;;;;;;7.53;5.00;;;11.80;99.90;;;;;;5045561;28;20296;-62
2024/02/03 11:46:19;;;;;;;14.30;5.17;;;11.80;99.90;;;;;;5041187;28;20229;-63
2024/02/03 11:48:47;;;;;;;7.17;4.13;;;11.90;99.90;;;;;;5043181;28;20770;-62
2024/02/03 11:51:18;;;;;;;9.33;4.50;;;11.90;99.90;;;;;;5040403;28;20293;-62
2024/02/03 11:53:46;;;;;;;12.60;4.80;;;11.90;99.90;;;;;;5043370;28;20625;-62
2024/02/03 11:56:14;;;;;;;5.87;4.67;;;11.90;99.90;;;;;;5039397;28;20196;-62
2024/02/03 11:58:42;;;;;;;11.20;4.63;;;11.80;99.90;;;;;;5045165;28;20284;-62
2024/02/03 12:01:14;;;;;;;10.73;4.40;;;11.80;99.90;;;;;;5042539;28;20252;-62
2024/02/03 12:03:42;;;;;;;19.83;4.63;;;11.70;99.90;;;;;;5042117;28;20225;-62
2024/02/03 12:06:11;;;;;;;10.17;4.37;;;11.80;99.90;;;;;;5042897;28;20668;-62
2024/02/03 12:08:41;;;;;;;8.37;3.90;;;11.70;99.90;;;;;;5039225;28;20232;-63
2024/02/03 12:11:09;;;;;;;8.50;4.37;;;11.80;99.90;;;;;;5058268;28;20193;-62
2024/02/03 12:13:43;;;;;;;17.20;4.30;;;11.80;99.90;;;;;;5040638;28;20679;-62
2024/02/03 12:16:12;;;;;;;11.10;4.77;;;11.90;99.90;;;;;;5042338;28;20232;-63
2024/02/03 12:18:40;;;;;;;15.13;5.50;;;11.90;99.90;;;;;;5046643;28;20224;-62
2024/02/03 12:21:10;;;;;;;16.00;7.37;;;11.90;99.90;;;;;;5039774;28;20304;-63
2024/02/03 12:23:39;;;;;;;9.93;6.13;;;11.90;99.90;;;;;;5038826;28;20232;-63
2024/02/03 12:26:10;;;;;;;21.93;6.93;;;11.90;99.90;;;;;;5025903;28;20728;-62
2024/02/03 12:28:39;;;;;;;17.87;6.60;;;11.80;99.90;;;;;;5039329;28;20243;-63
2024/02/03 12:31:08;;;;;;;14.57;6.97;;;11.80;99.90;;;;;;5044595;28;20220;-62
2024/02/03 12:33:36;;;;;;;11.87;7.70;;;11.80;99.90;;;;;;5043293;28;20321;-63
2024/02/03 12:36:08;;;;;;;15.70;7.33;;;11.80;99.90;;;;;;5041164;28;20767;-63
2024/02/03 12:38:36;;;;;;;14.87;7.60;;;11.80;99.90;;;;;;5048339;28;20227;-62
2024/02/03 12:41:04;;;;;;;15.27;7.50;;;11.80;99.90;;;;;;5043324;28;20205;-63
2024/02/03 12:43:34;;;;;;;18.77;8.23;;;11.80;99.90;;;;;;5044491;28;20863;-62
2024/02/03 12:46:02;;;;;;;20.60;8.10;;;11.80;99.90;;;;;;5048220;28;20304;-63
2024/02/03 12:48:31;;;;;;;22.30;7.63;;;11.70;99.90;;;;;;5044669;28;20567;-63